Terminal Aerodrome Forecast
Issued by NWS Los Angeles, CA

Home | Current Version | Previous Version | Text Only | Print | Product List | Glossary On
Versions: 1 2 3 4 5 6 7 8 9 10 11 12 13 14 15 16 17 18 19 20 21 22 23 24
000
FTUS46 KLOX 261138
TAFSMX
TAF
KSMX 261138Z 2612/2712 VRB03KT P6SM OVC017
     FM261800 32010KT P6SM FEW020 SCT030
     FM262100 31022G32KT P6SM SKC
     FM270300 31012KT P6SM SKC
     FM270700 VRB03KT P6SM BKN015
     FM271000 VRB03KT 5SM BR OVC009=

USA.gov is the U.S. government's official web portal to all federal, state and local government web resources and services.